Hovedside
METAR-TAF:

METAR-TAF

Lufthavner :

Ljungbyhed, Sverige

breddegrad: 56-04N, lengdegrad: 013-12E, høyde over havet: 43 m

Gjeldene værobservasjon

Denne rapporten ble laget for 40 minutter siden, klokken 11:20 UTC
Vind 3 kt fra Øst-sørøst, skiftende mellom Øst og Sør-sørøst
Temperatur 11°C
Luftfuktighet 94%
Trykk 1009 hPa
Sikt: 9000 m
lett regn

METAR: ESTL 221120Z AUTO 12003KT 100V160 9000NDV -RA FEW003/// SCT007/// BKN011/// 11/10 Q1009 REDZ

Tid: 14:00 (12:00 UTC)


TAF: fraværende

Værobservasjoner og værvarsel for over 4000 flyplasser (METAR- og TAF-rapporter).

Tilgjengelige stasjoner er representert av de røde og gule prikkene på kartet.

Hold musepekeren over prikken for å se navnet på stasjonen.

Klikk så for å se værobservasjoner og -varsler.

For å forandre kartet kan du klikke på den grønne knappen med svart kryss for å zoome inn, på den grønne knappen med strek for å zoome ut, eller på de grønne pilene for å se tilstøtende kart.


METAR-TAF: